createdAt,value
2018-07-05T00:01:08.723Z,16.60
2018-07-05T00:03:48.657Z,16.60
2018-07-05T00:06:28.602Z,16.60
2018-07-05T00:09:08.404Z,16.50
2018-07-05T00:11:48.388Z,16.50
2018-07-05T00:14:28.532Z,16.50
2018-07-05T00:17:08.277Z,16.40
2018-07-05T00:19:48.198Z,16.30
2018-07-05T00:22:29.006Z,16.40
2018-07-05T00:25:09.126Z,16.30
2018-07-05T00:27:48.940Z,16.30
2018-07-05T00:30:28.795Z,16.30
2018-07-05T00:33:08.526Z,16.30
2018-07-05T00:35:48.350Z,16.20
2018-07-05T00:38:28.298Z,16.10
2018-07-05T00:41:08.376Z,16.10
2018-07-05T00:43:48.489Z,16.10
2018-07-05T00:46:28.361Z,16.10
2018-07-05T00:49:08.131Z,16.00
2018-07-05T00:51:47.974Z,16.00
2018-07-05T00:54:27.933Z,15.90
2018-07-05T00:57:07.949Z,15.80
2018-07-05T00:59:47.697Z,15.80
2018-07-05T01:02:27.676Z,15.90
2018-07-05T01:05:07.370Z,15.80
2018-07-05T01:07:47.740Z,15.80
2018-07-05T01:10:27.622Z,15.70
2018-07-05T01:13:07.474Z,15.70
2018-07-05T01:15:47.473Z,15.70
2018-07-05T01:18:27.220Z,15.70
2018-07-05T01:21:07.287Z,15.70
2018-07-05T01:23:47.138Z,15.60
2018-07-05T01:26:27.370Z,15.50
2018-07-05T01:29:07.651Z,15.50
2018-07-05T01:31:47.573Z,15.50
2018-07-05T01:34:27.598Z,15.60
2018-07-05T01:37:07.425Z,15.50
2018-07-05T01:44:55.803Z,15.30
2018-07-05T01:47:35.657Z,15.40
2018-07-05T01:50:15.759Z,15.40
2018-07-05T01:52:55.502Z,15.30
2018-07-05T01:55:35.375Z,15.20
2018-07-05T01:58:15.167Z,15.20
2018-07-05T02:00:55.018Z,15.20
2018-07-05T02:03:34.890Z,15.20
2018-07-05T02:06:14.723Z,15.10
2018-07-05T02:08:54.564Z,15.10
2018-07-05T02:14:08.135Z,15.10
2018-07-05T02:16:48.057Z,15.10
2018-07-05T02:19:28.033Z,15.00
2018-07-05T02:22:08.097Z,15.10
2018-07-05T02:24:48.882Z,15.20
2018-07-05T02:27:28.786Z,15.00
2018-07-05T02:30:08.741Z,15.00
2018-07-05T02:32:48.727Z,14.90
2018-07-05T02:35:28.775Z,14.90
2018-07-05T02:38:14.156Z,14.90
2018-07-05T02:40:54.042Z,14.80
2018-07-05T02:43:34.737Z,14.80
2018-07-05T02:46:14.579Z,14.90
2018-07-05T02:48:54.514Z,14.90
2018-07-05T02:51:34.322Z,14.80
2018-07-05T02:54:14.372Z,14.70
2018-07-05T02:56:54.388Z,14.70
2018-07-05T02:59:34.352Z,14.70
2018-07-05T03:02:14.415Z,14.70
2018-07-05T03:04:54.293Z,14.70
2018-07-05T03:07:34.521Z,14.60
2018-07-05T03:10:14.505Z,14.60
2018-07-05T03:12:54.806Z,14.60
2018-07-05T03:15:35.283Z,14.60
2018-07-05T03:18:15.147Z,14.60
2018-07-05T03:20:55.421Z,14.60
2018-07-05T03:23:35.309Z,14.70
2018-07-05T03:26:15.204Z,14.70
2018-07-05T03:28:55.354Z,14.70
2018-07-05T03:31:35.233Z,14.70
2018-07-05T03:34:15.132Z,14.70
2018-07-05T03:36:55.131Z,14.80
2018-07-05T03:39:35.030Z,14.90
2018-07-05T03:42:15.605Z,15.00
2018-07-05T03:44:55.286Z,15.10
2018-07-05T03:47:35.159Z,15.20
2018-07-05T03:50:15.089Z,15.30
2018-07-05T03:52:55.071Z,15.40
2018-07-05T03:55:35.335Z,15.50
2018-07-05T03:58:15.201Z,15.50
2018-07-05T04:00:55.178Z,15.80
2018-07-05T04:03:35.234Z,16.10
2018-07-05T04:06:15.323Z,16.20
2018-07-05T04:08:55.845Z,16.20
2018-07-05T04:11:35.818Z,16.30
2018-07-05T04:14:16.612Z,16.30
2018-07-05T04:16:56.375Z,16.50
2018-07-05T04:19:40.794Z,16.70
2018-07-05T04:22:21.152Z,16.80
2018-07-05T04:25:01.035Z,17.00
2018-07-05T04:27:40.927Z,17.10
2018-07-05T04:30:20.979Z,17.20
2018-07-05T04:33:02.218Z,17.40
2018-07-05T04:35:42.120Z,17.60
2018-07-05T04:40:55.882Z,18.00
2018-07-05T04:43:35.779Z,18.30
2018-07-05T04:46:16.759Z,18.50
2018-07-05T04:48:56.650Z,18.70
2018-07-05T04:51:37.257Z,18.70
2018-07-05T04:54:17.194Z,18.80
2018-07-05T04:56:57.492Z,18.90
2018-07-05T04:59:37.326Z,19.00
2018-07-05T05:02:17.569Z,19.10
2018-07-05T05:04:57.572Z,19.20
2018-07-05T05:07:37.390Z,19.50
2018-07-05T05:12:51.611Z,19.70
2018-07-05T05:15:31.461Z,19.80
2018-07-05T05:18:11.193Z,19.90
2018-07-05T05:20:51.256Z,20.10
2018-07-05T05:23:31.220Z,20.30
2018-07-05T05:26:11.018Z,20.60
2018-07-05T05:28:51.035Z,20.80
2018-07-05T05:31:30.947Z,20.80
2018-07-05T05:34:10.668Z,20.60
2018-07-05T05:36:50.555Z,20.60
2018-07-05T05:39:34.323Z,20.70
2018-07-05T05:44:49.594Z,20.90
2018-07-05T05:47:29.484Z,20.80
2018-07-05T05:50:09.302Z,21.00
2018-07-05T05:52:49.131Z,21.20
2018-07-05T05:55:28.831Z,21.50
2018-07-05T05:58:08.709Z,21.50
2018-07-05T06:00:48.446Z,21.60
2018-07-05T06:03:28.341Z,21.60
2018-07-05T06:06:08.234Z,21.60
2018-07-05T06:08:48.160Z,21.70
2018-07-05T06:11:28.029Z,21.80
2018-07-05T06:14:07.882Z,21.90
2018-07-05T06:16:47.830Z,21.80
2018-07-05T06:19:27.656Z,22.00
2018-07-05T06:22:07.517Z,22.10
2018-07-05T06:24:47.534Z,22.20
2018-07-05T06:27:27.480Z,22.40
2018-07-05T06:30:07.899Z,22.50
2018-07-05T06:32:48.111Z,22.60
2018-07-05T06:35:28.984Z,22.70
2018-07-05T06:38:09.568Z,22.90
2018-07-05T06:40:49.860Z,23.00
2018-07-05T06:43:29.807Z,23.10
2018-07-05T06:46:09.658Z,23.20
2018-07-05T06:48:49.448Z,23.40
2018-07-05T06:51:29.491Z,23.50
2018-07-05T06:54:09.405Z,23.50
2018-07-05T06:56:49.398Z,23.60
2018-07-05T06:59:29.224Z,23.70
2018-07-05T07:02:09.096Z,23.90
2018-07-05T07:04:49.308Z,24.10
2018-07-05T07:07:29.259Z,24.20
2018-07-05T07:10:09.131Z,24.30
2018-07-05T07:12:48.899Z,24.50
2018-07-05T07:15:28.934Z,24.80
2018-07-05T07:20:42.751Z,25.20
2018-07-05T07:23:22.458Z,25.40
2018-07-05T07:26:02.386Z,25.80
2018-07-05T07:28:42.320Z,26.10
2018-07-05T07:31:22.331Z,26.30
2018-07-05T07:34:02.099Z,26.60
2018-07-05T07:36:42.208Z,26.90
2018-07-05T07:39:22.872Z,26.70
2018-07-05T07:41:51.503Z,27.20
2018-07-05T07:44:20.472Z,27.20
2018-07-05T07:46:48.611Z,27.70
2018-07-05T07:49:19.807Z,27.90
2018-07-05T07:51:47.297Z,27.80
2018-07-05T07:54:14.759Z,27.80
2018-07-05T07:56:42.222Z,28.30
2018-07-05T07:59:09.706Z,28.80
2018-07-05T08:01:37.131Z,28.80
2018-07-05T08:04:04.658Z,28.90
2018-07-05T08:06:32.139Z,28.70
2018-07-05T08:08:59.703Z,28.70
2018-07-05T08:11:27.209Z,28.50
2018-07-05T08:13:54.712Z,28.40
2018-07-05T08:16:22.251Z,28.60
2018-07-05T08:18:49.711Z,28.90
2018-07-05T08:21:17.160Z,28.90
2018-07-05T08:23:44.621Z,29.20
2018-07-05T08:26:12.050Z,29.40
2018-07-05T08:28:39.555Z,29.70
2018-07-05T08:31:07.016Z,29.90
2018-07-05T08:33:34.481Z,29.80
2018-07-05T08:36:01.975Z,29.60
2018-07-05T08:38:29.413Z,29.50
2018-07-05T08:40:56.860Z,29.70
2018-07-05T08:43:24.319Z,29.70
2018-07-05T08:45:51.808Z,30.00
2018-07-05T08:48:19.314Z,29.80
2018-07-05T08:50:46.772Z,29.70
2018-07-05T08:53:14.566Z,29.70
2018-07-05T08:55:42.044Z,30.50
2018-07-05T08:58:09.553Z,31.00
2018-07-05T09:00:37.026Z,31.30
2018-07-05T09:03:04.512Z,31.70
2018-07-05T09:05:31.977Z,31.90
2018-07-05T09:07:59.454Z,32.10
2018-07-05T09:10:26.956Z,32.50
2018-07-05T09:12:54.493Z,32.40
2018-07-05T09:15:21.926Z,32.50
2018-07-05T09:17:49.608Z,32.90
2018-07-05T09:20:17.439Z,32.90
2018-07-05T09:22:45.024Z,33.00
2018-07-05T09:25:12.495Z,33.50
2018-07-05T09:27:41.523Z,33.60
2018-07-05T09:30:09.056Z,33.90
2018-07-05T09:32:36.493Z,33.40
2018-07-05T09:35:04.167Z,33.30
2018-07-05T09:37:31.715Z,33.30
2018-07-05T09:39:59.240Z,33.90
2018-07-05T09:42:26.768Z,33.60
2018-07-05T09:44:54.251Z,33.90
2018-07-05T09:47:24.473Z,33.60
2018-07-05T09:49:52.000Z,34.10
2018-07-05T09:52:19.571Z,33.90
2018-07-05T09:54:48.135Z,34.20
2018-07-05T09:57:15.571Z,34.30
2018-07-05T09:59:43.107Z,34.60
2018-07-05T10:02:10.595Z,34.70
2018-07-05T10:04:38.086Z,34.40
2018-07-05T10:07:05.672Z,35.00
2018-07-05T10:09:33.188Z,35.20
2018-07-05T10:12:00.776Z,35.20
2018-07-05T10:14:28.309Z,35.40
2018-07-05T10:16:55.773Z,34.90
2018-07-05T10:19:23.297Z,34.50
2018-07-05T10:21:50.792Z,34.00
2018-07-05T10:24:18.569Z,33.80
2018-07-05T10:26:46.498Z,34.10
2018-07-05T10:29:26.287Z,34.00
2018-07-05T10:32:06.234Z,34.10
2018-07-05T10:34:33.748Z,33.60
2018-07-05T10:37:01.899Z,33.70
2018-07-05T10:39:29.337Z,33.70
2018-07-05T10:42:09.062Z,33.60
2018-07-05T10:44:48.966Z,33.50
2018-07-05T10:47:28.844Z,33.90
2018-07-05T10:50:08.546Z,33.90
2018-07-05T10:52:48.637Z,33.60
2018-07-05T10:55:28.561Z,33.60
2018-07-05T10:58:08.459Z,33.40
2018-07-05T11:00:48.427Z,33.90
2018-07-05T11:03:28.318Z,34.00
2018-07-05T11:06:08.037Z,34.20
2018-07-05T11:08:47.926Z,34.40
2018-07-05T11:11:27.652Z,33.80
2018-07-05T11:14:07.654Z,34.00
2018-07-05T11:16:47.761Z,34.50
2018-07-05T11:19:27.833Z,35.10
2018-07-05T11:22:07.651Z,35.70
2018-07-05T11:24:47.398Z,35.20
2018-07-05T11:27:27.247Z,35.40
2018-07-05T11:30:08.248Z,35.50
2018-07-05T11:32:48.248Z,34.90
2018-07-05T11:35:28.018Z,35.20
2018-07-05T11:38:07.906Z,35.30
2018-07-05T11:40:47.763Z,35.50
2018-07-05T11:43:27.948Z,35.70
2018-07-05T11:46:07.856Z,35.90
2018-07-05T11:48:47.625Z,36.20
2018-07-05T11:51:28.614Z,35.90
2018-07-05T11:54:08.318Z,36.30
2018-07-05T11:56:48.187Z,36.30
2018-07-05T11:59:28.165Z,35.60
2018-07-05T12:02:08.037Z,35.30
2018-07-05T12:04:48.422Z,35.50
2018-07-05T12:07:28.457Z,36.40
2018-07-05T12:10:08.579Z,36.70
2018-07-05T12:12:48.520Z,35.90
2018-07-05T12:15:28.367Z,35.70
2018-07-05T12:18:09.003Z,36.00
2018-07-05T12:20:48.881Z,36.50
2018-07-05T12:23:28.770Z,36.40
2018-07-05T12:26:08.782Z,36.00
2018-07-05T12:28:48.561Z,35.70
2018-07-05T12:31:28.425Z,35.90
2018-07-05T12:34:08.605Z,36.20
2018-07-05T12:36:48.377Z,35.50
2018-07-05T12:39:28.204Z,35.40
2018-07-05T12:42:08.130Z,36.40
2018-07-05T12:44:48.019Z,35.60
2018-07-05T12:47:27.967Z,36.50
2018-07-05T12:50:07.990Z,37.40
2018-07-05T12:52:47.692Z,37.10
2018-07-05T12:55:27.481Z,37.30
2018-07-05T12:58:07.351Z,36.70
2018-07-05T13:00:47.251Z,37.30
2018-07-05T13:03:27.171Z,36.90
2018-07-05T13:06:07.140Z,36.60
2018-07-05T13:08:47.175Z,36.00
2018-07-05T13:11:27.023Z,36.40
2018-07-05T13:14:07.085Z,36.70
2018-07-05T13:16:47.176Z,36.70
2018-07-05T13:19:28.082Z,36.40
2018-07-05T13:22:08.008Z,36.90
2018-07-05T13:24:47.854Z,37.30
2018-07-05T13:27:27.643Z,37.00
2018-07-05T13:30:07.440Z,37.00
2018-07-05T13:32:47.435Z,36.70
2018-07-05T13:35:27.066Z,35.40
2018-07-05T13:38:06.824Z,35.80
2018-07-05T13:40:46.892Z,36.40
2018-07-05T13:43:26.606Z,36.80
2018-07-05T13:48:40.395Z,37.20
2018-07-05T13:51:20.278Z,36.90
2018-07-05T13:53:59.959Z,36.60
2018-07-05T13:56:39.883Z,37.10
2018-07-05T13:59:19.624Z,37.60
2018-07-05T14:02:00.546Z,37.10
2018-07-05T14:04:41.389Z,37.10
2018-07-05T14:07:21.772Z,37.20
2018-07-05T14:10:01.730Z,37.60
2018-07-05T14:12:41.754Z,37.30
2018-07-05T14:15:21.711Z,36.80
2018-07-05T14:18:01.808Z,37.10
2018-07-05T14:20:41.742Z,37.10
2018-07-05T14:23:22.030Z,36.20
2018-07-05T14:26:02.088Z,37.10
2018-07-05T14:28:41.832Z,36.60
2018-07-05T14:31:22.453Z,35.60
2018-07-05T14:34:02.494Z,35.70
2018-07-05T14:36:42.193Z,35.20
2018-07-05T14:39:22.089Z,36.00
2018-07-05T14:42:01.886Z,36.50
2018-07-05T14:44:41.717Z,36.70
2018-07-05T14:47:22.049Z,36.20
2018-07-05T14:50:02.076Z,36.40
2018-07-05T14:52:41.786Z,35.10
2018-07-05T14:55:21.608Z,34.20
2018-07-05T15:01:11.935Z,35.60
2018-07-05T15:03:51.783Z,35.80
2018-07-05T15:06:31.800Z,36.30
2018-07-05T15:09:11.541Z,36.40
2018-07-05T15:11:52.594Z,35.80
2018-07-05T15:14:32.645Z,35.80
2018-07-05T15:17:12.762Z,35.30
2018-07-05T15:19:52.472Z,35.20
2018-07-05T15:22:32.654Z,34.80
2018-07-05T15:25:13.007Z,35.00
2018-07-05T15:27:52.950Z,34.80
2018-07-05T15:30:32.994Z,35.30
2018-07-05T15:33:13.062Z,35.90
2018-07-05T15:35:53.035Z,35.40
2018-07-05T15:38:32.981Z,35.60
2018-07-05T15:41:13.241Z,35.20
2018-07-05T15:43:53.161Z,34.70
2018-07-05T15:46:33.129Z,34.50
2018-07-05T15:49:13.064Z,34.90
2018-07-05T15:51:53.054Z,34.10
2018-07-05T15:54:33.300Z,33.50
2018-07-05T15:57:13.353Z,33.80
2018-07-05T15:59:53.656Z,33.40
2018-07-05T16:02:33.660Z,32.90
2018-07-05T16:05:13.507Z,33.10
2018-07-05T16:07:53.526Z,32.80
2018-07-05T16:10:33.554Z,32.90
2018-07-05T16:13:13.400Z,33.10
2018-07-05T16:15:53.160Z,32.60
2018-07-05T16:18:33.096Z,32.10
2018-07-05T16:21:12.864Z,31.90
2018-07-05T16:23:52.706Z,32.10
2018-07-05T16:26:32.670Z,32.10
2018-07-05T16:29:12.577Z,31.90
2018-07-05T16:31:53.848Z,31.90
2018-07-05T16:34:33.843Z,31.70
2018-07-05T16:37:13.557Z,31.40
2018-07-05T16:39:53.356Z,30.90
2018-07-05T16:42:33.249Z,30.80
2018-07-05T16:45:13.073Z,30.60
2018-07-05T16:47:53.653Z,30.60
2018-07-05T16:50:35.940Z,30.30
2018-07-05T16:53:16.627Z,30.40
2018-07-05T16:55:57.136Z,30.50
2018-07-05T16:58:37.085Z,30.30
2018-07-05T17:01:18.688Z,30.10
2018-07-05T17:03:58.456Z,30.20
2018-07-05T17:06:38.342Z,30.10
2018-07-05T17:09:18.017Z,29.90
2018-07-05T17:11:58.867Z,29.80
2018-07-05T17:14:38.852Z,29.50
2018-07-05T17:17:18.951Z,29.40
2018-07-05T17:19:59.096Z,29.30
2018-07-05T17:22:39.218Z,29.20
2018-07-05T17:25:19.246Z,29.20
2018-07-05T17:27:59.210Z,29.10
2018-07-05T17:30:39.127Z,29.00
2018-07-05T17:33:19.094Z,29.00
2018-07-05T17:35:59.346Z,28.80
2018-07-05T17:38:39.154Z,28.80
2018-07-05T17:41:20.583Z,28.60
2018-07-05T17:44:00.510Z,28.60
2018-07-05T17:46:40.490Z,28.40
2018-07-05T17:49:20.649Z,28.40
2018-07-05T17:52:00.611Z,28.30
2018-07-05T17:54:40.510Z,28.10
2018-07-05T17:57:20.884Z,28.00
2018-07-05T18:00:01.447Z,27.80
2018-07-05T18:02:41.342Z,27.80
2018-07-05T18:05:21.821Z,27.70
2018-07-05T18:10:36.507Z,27.30
2018-07-05T18:13:16.368Z,27.30
2018-07-05T18:15:56.360Z,27.10
2018-07-05T18:18:36.280Z,27.10
2018-07-05T18:21:16.164Z,27.00
2018-07-05T18:23:56.014Z,26.80
2018-07-05T18:26:36.485Z,26.70
2018-07-05T18:29:16.322Z,26.80
2018-07-05T18:31:56.244Z,26.60
2018-07-05T18:34:36.611Z,26.50
2018-07-05T18:37:16.452Z,26.40
2018-07-05T18:39:56.534Z,26.40
2018-07-05T18:42:36.347Z,26.30
2018-07-05T18:45:16.752Z,26.30
2018-07-05T18:47:56.727Z,26.20
2018-07-05T18:50:36.849Z,26.10
2018-07-05T18:53:16.925Z,26.00
2018-07-05T18:55:56.832Z,25.90
2018-07-05T18:58:36.890Z,25.80
2018-07-05T19:01:16.577Z,25.50
2018-07-05T19:03:56.862Z,25.40
2018-07-05T19:06:36.744Z,24.90
2018-07-05T19:09:16.794Z,24.80
2018-07-05T19:11:56.572Z,24.70
2018-07-05T19:14:37.626Z,24.60
2018-07-05T19:17:17.461Z,24.40
2018-07-05T19:19:57.219Z,24.40
2018-07-05T19:22:37.124Z,24.30
2018-07-05T19:25:17.175Z,24.20
2018-07-05T19:27:57.040Z,24.20
2018-07-05T19:30:36.923Z,24.20
2018-07-05T19:33:16.954Z,24.10
2018-07-05T19:38:31.001Z,23.90
2018-07-05T19:41:11.205Z,23.70
2018-07-05T19:43:51.100Z,23.70
2018-07-05T19:46:31.002Z,23.30
2018-07-05T19:49:10.743Z,23.20
2018-07-05T19:51:50.733Z,23.20
2018-07-05T19:54:31.181Z,23.30
2018-07-05T19:57:13.556Z,23.20
2018-07-05T19:59:53.439Z,23.20
2018-07-05T20:02:33.306Z,23.20
2018-07-05T20:05:13.208Z,23.10
2018-07-05T20:07:52.959Z,22.90
2018-07-05T20:10:33.004Z,22.90
2018-07-05T20:13:13.039Z,22.80
2018-07-05T20:15:52.863Z,22.80
2018-07-05T20:18:32.922Z,22.50
2018-07-05T20:21:13.020Z,22.40
2018-07-05T20:23:52.969Z,22.30
2018-07-05T20:26:32.879Z,22.30
2018-07-05T20:29:12.692Z,22.30
2018-07-05T20:31:52.552Z,22.20
2018-07-05T20:34:32.396Z,22.00
2018-07-05T20:37:12.241Z,21.90
2018-07-05T20:39:52.336Z,21.90
2018-07-05T20:42:32.276Z,21.70
2018-07-05T20:45:12.689Z,21.60
2018-07-05T20:47:52.573Z,21.60
2018-07-05T20:50:33.159Z,21.50
2018-07-05T20:53:12.954Z,21.40
2018-07-05T20:55:52.794Z,21.40
2018-07-05T20:58:33.581Z,21.30
2018-07-05T21:01:14.102Z,21.30
2018-07-05T21:03:54.662Z,21.30
2018-07-05T21:06:34.373Z,21.10
2018-07-05T21:09:14.391Z,21.10
2018-07-05T21:11:54.480Z,21.00
2018-07-05T21:14:34.797Z,21.10
2018-07-05T21:19:49.124Z,20.90
2018-07-05T21:22:29.395Z,20.90
2018-07-05T21:25:09.429Z,20.80
2018-07-05T21:27:49.660Z,20.70
2018-07-05T21:30:29.675Z,20.70
2018-07-05T21:33:09.555Z,20.40
2018-07-05T21:35:49.606Z,20.50
2018-07-05T21:38:29.476Z,20.50
2018-07-05T21:41:09.435Z,20.40
2018-07-05T21:43:49.354Z,20.40
2018-07-05T21:46:29.826Z,20.40
2018-07-05T21:49:09.647Z,20.20
2018-07-05T21:51:49.644Z,20.10
2018-07-05T21:54:29.596Z,20.00
2018-07-05T21:57:09.442Z,20.00
2018-07-05T21:59:49.631Z,19.80
2018-07-05T22:02:29.884Z,19.80
2018-07-05T22:05:13.492Z,19.80
2018-07-05T22:07:54.769Z,19.70
2018-07-05T22:10:34.639Z,19.60
2018-07-05T22:13:14.593Z,19.60
2018-07-05T22:15:54.581Z,19.50
2018-07-05T22:18:39.810Z,19.60
2018-07-05T22:21:20.623Z,19.50
2018-07-05T22:24:06.003Z,19.40
2018-07-05T22:26:47.206Z,19.40
2018-07-05T22:29:32.626Z,19.30
2018-07-05T22:32:12.580Z,19.20
2018-07-05T22:34:52.551Z,19.10
2018-07-05T22:37:32.545Z,19.00
2018-07-05T22:40:13.578Z,18.90
2018-07-05T22:42:53.864Z,18.90
2018-07-05T22:45:34.004Z,18.90
2018-07-05T22:48:14.295Z,18.80
2018-07-05T22:50:54.131Z,18.70
2018-07-05T22:53:34.045Z,18.70
2018-07-05T22:56:14.506Z,18.60
2018-07-05T22:58:54.431Z,18.50
2018-07-05T23:01:34.372Z,18.40
2018-07-05T23:04:14.381Z,18.40
2018-07-05T23:06:54.273Z,18.30
2018-07-05T23:09:34.252Z,18.20
2018-07-05T23:12:13.997Z,18.20
2018-07-05T23:14:53.843Z,18.10
2018-07-05T23:17:34.312Z,18.00
2018-07-05T23:20:14.158Z,18.00
2018-07-05T23:22:54.193Z,18.00
2018-07-05T23:25:34.417Z,17.90
2018-07-05T23:28:14.335Z,17.90
2018-07-05T23:30:54.199Z,17.80
2018-07-05T23:36:07.889Z,17.60
2018-07-05T23:38:48.127Z,17.60
2018-07-05T23:41:28.133Z,17.60
2018-07-05T23:44:07.775Z,17.50
2018-07-05T23:46:47.701Z,17.50
2018-07-05T23:49:27.626Z,17.50
2018-07-05T23:52:07.544Z,17.40
2018-07-05T23:54:47.635Z,17.30
2018-07-05T23:57:28.200Z,17.30
